Time;durP1;ratioP1;P1;durP2;ratioP2;P2;SDS_P1;SDS_P2;PMS_P1;PMS_P2;Temp;Humidity;BMP_temperature;BMP_pressure;BME280_temperature;BME280_humidity;BME280_pressure;Samples;Min_cycle;Max_cycle;Signal;HPM_P1;HPM_P2
2023/04/17 00:01:54;;;;;;;33.70;19.77;;;;;;;8.20;100.00;102551.81;4901580;29;20036;-74
2023/04/17 00:04:20;;;;;;;34.35;19.50;;;;;;;8.16;100.00;102545.63;4914551;29;20064;-74
2023/04/17 00:06:46;;;;;;;34.03;19.30;;;;;;;8.18;100.00;102558.81;4918356;29;20063;-74
2023/04/17 00:09:12;;;;;;;31.80;20.10;;;;;;;8.16;100.00;102560.56;4917242;29;20613;-74
2023/04/17 00:11:37;;;;;;;34.00;18.83;;;;;;;8.15;100.00;102551.75;4907937;29;20056;-74
2023/04/17 00:14:04;;;;;;;30.45;19.52;;;;;;;8.17;100.00;102555.28;4901576;29;20050;-74
2023/04/17 00:16:30;;;;;;;30.65;18.27;;;;;;;8.19;100.00;102547.41;4901493;29;20028;-73
2023/04/17 00:18:55;;;;;;;30.85;19.08;;;;;;;8.18;100.00;102541.25;4888944;29;20032;-74
2023/04/17 00:21:21;;;;;;;31.05;19.25;;;;;;;8.17;100.00;102547.38;4902368;29;20417;-74
2023/04/17 00:23:47;;;;;;;28.55;18.83;;;;;;;8.18;100.00;102542.97;4904146;29;20064;-74
2023/04/17 00:26:14;;;;;;;35.38;19.05;;;;;;;8.18;100.00;102538.63;4892720;29;20071;-73
2023/04/17 00:28:41;;;;;;;31.27;19.13;;;;;;;8.18;100.00;102533.34;4914286;29;20035;-73
2023/04/17 00:31:07;;;;;;;37.10;18.45;;;;;;;8.18;100.00;102529.78;4898118;29;20625;-73
2023/04/17 00:33:34;;;;;;;30.65;19.02;;;;;;;8.16;100.00;102540.34;4884359;29;20109;-73
2023/04/17 00:35:59;;;;;;;30.83;19.77;;;;;;;8.15;100.00;102532.38;4897988;29;20036;-73
2023/04/17 00:38:25;;;;;;;32.55;18.63;;;;;;;8.15;100.00;102530.63;4907271;29;20028;-73
2023/04/17 00:40:50;;;;;;;34.42;19.42;;;;;;;8.14;100.00;102530.63;4928118;28;20122;-73
2023/04/17 00:43:16;;;;;;;29.77;19.35;;;;;;;8.13;100.00;102536.75;4896816;29;20124;-73
2023/04/17 00:45:42;;;;;;;32.20;19.55;;;;;;;8.11;100.00;102530.56;4900467;29;20090;-73
2023/04/17 00:48:08;;;;;;;32.42;18.27;;;;;;;8.11;100.00;102536.75;4902940;29;20120;-73
2023/04/17 00:50:34;;;;;;;32.65;18.95;;;;;;;8.06;100.00;102527.88;4920057;29;20066;-73
2023/04/17 00:53:00;;;;;;;32.05;18.25;;;;;;;8.05;100.00;102514.66;4914405;29;20055;-73
2023/04/17 00:55:27;;;;;;;28.85;17.90;;;;;;;8.03;100.00;102525.16;4915186;29;20036;-73
2023/04/17 00:57:53;;;;;;;33.00;19.80;;;;;;;8.04;100.00;102526.06;4917829;29;20099;-73
2023/04/17 01:00:19;;;;;;;31.42;19.52;;;;;;;8.04;100.00;102526.97;4891905;29;20393;-73
2023/04/17 01:02:45;;;;;;;25.27;18.40;;;;;;;8.05;100.00;102522.56;4904134;29;20094;-73
2023/04/17 01:05:11;;;;;;;32.70;18.35;;;;;;;8.02;100.00;102519.88;4910928;29;20040;-73
2023/04/17 01:07:38;;;;;;;29.85;18.98;;;;;;;7.97;100.00;102518.03;4900844;29;20109;-73
2023/04/17 01:10:04;;;;;;;27.08;17.90;;;;;;;7.98;100.00;102521.56;4908867;29;20164;-73
2023/04/17 01:12:30;;;;;;;29.25;18.20;;;;;;;7.99;100.00;102523.34;4899228;29;20388;-73
2023/04/17 01:14:56;;;;;;;29.52;18.08;;;;;;;7.98;100.00;102526.84;4908853;29;20040;-73
2023/04/17 01:17:24;;;;;;;32.15;19.00;;;;;;;8.01;100.00;102528.63;4898008;29;20033;-73
2023/04/17 01:19:51;;;;;;;29.73;18.35;;;;;;;8.02;100.00;102526.03;4914408;29;20476;-73
2023/04/17 01:22:18;;;;;;;28.20;17.77;;;;;;;8.04;100.00;102531.34;4884353;29;20092;-73
2023/04/17 01:24:44;;;;;;;41.08;18.45;;;;;;;8.05;100.00;102523.44;4917751;29;20519;-73
2023/04/17 01:27:12;;;;;;;30.13;18.58;;;;;;;8.02;100.00;102526.03;4907815;29;20046;-74
2023/04/17 01:29:41;;;;;;;35.60;18.98;;;;;;;8.02;100.00;102528.69;4901253;29;20040;-73
2023/04/17 01:32:08;;;;;;;27.88;18.05;;;;;;;7.99;100.00;102531.28;4914222;29;20048;-73
2023/04/17 01:34:34;;;;;;;28.42;17.50;;;;;;;7.97;100.00;102531.25;4912059;29;20429;-73
2023/04/17 01:36:59;;;;;;;29.30;18.23;;;;;;;7.95;100.00;102532.97;4897126;29;20032;-74
2023/04/17 01:39:25;;;;;;;33.80;18.10;;;;;;;7.91;100.00;102525.88;4903656;29;20036;-74
2023/04/17 01:41:50;;;;;;;30.35;18.08;;;;;;;7.90;100.00;102529.34;4903823;29;20048;-74
2023/04/17 01:44:17;;;;;;;31.83;18.27;;;;;;;7.88;100.00;102532.84;4897838;29;20037;-74
2023/04/17 01:46:42;;;;;;;33.65;17.58;;;;;;;7.85;100.00;102532.78;4896756;29;20362;-74
2023/04/17 01:49:08;;;;;;;28.20;17.65;;;;;;;7.84;100.00;102534.56;4896703;29;20053;-74
2023/04/17 01:51:34;;;;;;;29.60;17.55;;;;;;;7.85;100.00;102531.03;4896722;29;20064;-74
2023/04/17 01:53:59;;;;;;;28.50;17.27;;;;;;;7.84;99.94;102536.28;4898041;29;20107;-74
2023/04/17 01:56:25;;;;;;;27.75;17.77;;;;;;;7.84;100.00;102533.63;4896679;29;20097;-74
2023/04/17 01:58:51;;;;;;;24.25;15.80;;;;;;;7.81;99.58;102538.88;4912001;29;20421;-73
2023/04/17 02:01:17;;;;;;;29.08;17.98;;;;;;;7.81;99.90;102536.22;4896007;29;20110;-74
2023/04/17 02:03:42;;;;;;;26.23;16.13;;;;;;;7.79;100.00;102536.22;4896391;29;20095;-74
2023/04/17 02:06:08;;;;;;;26.73;17.67;;;;;;;7.78;100.00;102538.81;4912111;29;20048;-73
2023/04/17 02:08:35;;;;;;;28.45;17.55;;;;;;;7.77;100.00;102537.06;4911954;29;20036;-73
2023/04/17 02:11:02;;;;;;;29.48;18.13;;;;;;;7.78;100.00;102538.81;4896522;29;20036;-73
2023/04/17 02:13:27;;;;;;;26.40;17.30;;;;;;;7.77;100.00;102543.22;4897384;29;20035;-73
2023/04/17 02:15:55;;;;;;;27.90;17.95;;;;;;;7.77;100.00;102544.97;4880880;29;20044;-73
2023/04/17 02:18:21;;;;;;;31.40;17.67;;;;;;;7.77;100.00;102539.69;4908504;29;20104;-73
2023/04/17 02:20:46;;;;;;;27.38;17.92;;;;;;;7.74;100.00;102538.78;4912083;29;20508;-74
2023/04/17 02:23:12;;;;;;;29.02;18.25;;;;;;;7.76;100.00;102541.44;4910618;29;20605;-73
2023/04/17 02:25:37;;;;;;;27.15;17.60;;;;;;;7.75;100.00;102531.75;4919388;29;20040;-73
2023/04/17 02:28:03;;;;;;;31.83;19.35;;;;;;;7.75;100.00;102537.91;4915736;29;20059;-73
2023/04/17 02:30:29;;;;;;;33.25;20.35;;;;;;;7.78;100.00;102533.56;4895686;29;20055;-73
2023/04/17 02:32:57;;;;;;;34.45;20.20;;;;;;;7.80;100.00;102539.75;4922957;29;20052;-73
2023/04/17 02:35:25;;;;;;;31.45;19.00;;;;;;;7.80;100.00;102531.84;4917113;29;20453;-73
2023/04/17 02:37:51;;;;;;;30.08;18.60;;;;;;;7.79;100.00;102537.94;4902535;29;20059;-73
2023/04/17 02:40:17;;;;;;;33.00;20.05;;;;;;;7.77;100.00;102529.16;4895897;29;20063;-73
2023/04/17 02:42:42;;;;;;;30.15;20.20;;;;;;;7.78;100.00;102536.19;4896783;29;20507;-73
2023/04/17 02:45:09;;;;;;;31.02;20.90;;;;;;;7.78;100.00;102544.09;4889599;29;20047;-73
2023/04/17 02:47:35;;;;;;;33.80;20.88;;;;;;;7.77;100.00;102532.66;4910644;29;20059;-74
2023/04/17 02:50:01;;;;;;;35.15;21.40;;;;;;;7.72;100.00;102529.94;4895631;29;20032;-73
2023/04/17 02:52:32;;;;;;;34.45;20.73;;;;;;;7.75;100.00;102532.63;4911035;29;20472;-73
2023/04/17 02:54:58;;;;;;;30.13;19.83;;;;;;;7.74;100.00;102528.22;4880157;29;20033;-73
2023/04/17 02:57:25;;;;;;;28.67;19.17;;;;;;;7.72;100.00;102535.22;4910877;29;20140;-74
2023/04/17 02:59:51;;;;;;;34.75;20.30;;;;;;;7.73;100.00;102531.72;4903729;29;20033;-73
2023/04/17 03:02:20;;;;;;;35.45;20.17;;;;;;;7.73;100.00;102539.63;4902170;29;20075;-73
2023/04/17 03:04:50;;;;;;;32.10;19.23;;;;;;;7.74;100.00;102541.41;4914135;29;20498;-73
2023/04/17 03:07:18;;;;;;;32.53;19.70;;;;;;;7.75;100.00;102547.56;4914162;29;20039;-73
2023/04/17 03:09:47;;;;;;;31.38;18.83;;;;;;;7.71;100.00;102543.97;4913894;29;20024;-74
2023/04/17 03:12:16;;;;;;;31.85;19.65;;;;;;;7.66;100.00;102545.66;4913826;29;20032;-74
2023/04/17 03:14:42;;;;;;;35.20;18.75;;;;;;;7.65;100.00;102543.88;4913789;29;20071;-74
2023/04/17 03:17:10;;;;;;;28.52;19.77;;;;;;;7.61;100.00;102546.44;4929860;29;20036;-74
2023/04/17 03:19:36;;;;;;;31.38;19.20;;;;;;;7.59;100.00;102551.69;4913537;29;20068;-74
2023/04/17 03:22:02;;;;;;;31.02;18.77;;;;;;;7.54;100.00;102554.25;4927891;28;20472;-74
2023/04/17 03:24:30;;;;;;;30.98;19.40;;;;;;;7.52;100.00;102552.44;4908227;29;20111;-74
2023/04/17 03:26:57;;;;;;;33.50;21.02;;;;;;;7.50;100.00;102547.13;4913871;29;20521;-74
2023/04/17 03:29:26;;;;;;;30.00;18.38;;;;;;;7.52;100.00;102547.19;4901745;29;20032;-74
2023/04/17 03:31:53;;;;;;;32.78;19.80;;;;;;;7.49;100.00;102545.38;4913500;29;20047;-73
2023/04/17 03:34:20;;;;;;;32.90;19.80;;;;;;;7.50;100.00;102547.13;4908732;29;20056;-74
2023/04/17 03:36:47;;;;;;;35.83;20.50;;;;;;;7.47;100.00;102548.84;4924413;29;20131;-74
2023/04/17 03:39:13;;;;;;;34.13;20.58;;;;;;;7.48;100.00;102547.97;4913097;29;20115;-74
2023/04/17 03:41:38;;;;;;;36.20;20.80;;;;;;;7.47;100.00;102546.22;4900435;29;20119;-74
2023/04/17 03:44:04;;;;;;;35.70;20.27;;;;;;;7.43;100.00;102549.63;4898851;29;20067;-74
2023/04/17 03:46:30;;;;;;;32.33;20.55;;;;;;;7.41;100.00;102544.31;4898719;29;20472;-73
2023/04/17 03:48:56;;;;;;;33.67;20.55;;;;;;;7.41;100.00;102546.09;4882607;29;20513;-73
2023/04/17 03:51:22;;;;;;;36.33;20.13;;;;;;;7.39;100.00;102545.16;4882968;29;20486;-73
2023/04/17 03:53:48;;;;;;;36.53;20.77;;;;;;;7.39;100.00;102545.16;4911638;29;20040;-74
2023/04/17 03:56:14;;;;;;;38.53;20.25;;;;;;;7.38;100.00;102544.28;4914311;29;20376;-74
2023/04/17 03:58:43;;;;;;;35.13;20.92;;;;;;;7.38;100.00;102541.63;4926867;29;20119;-73
2023/04/17 04:01:11;;;;;;;35.90;20.23;;;;;;;7.37;100.00;102539.88;4896592;29;20421;-73
2023/04/17 04:03:44;;;;;;;34.78;20.85;;;;;;;7.39;100.00;102548.69;4898502;29;20522;-73
2023/04/17 04:06:09;;;;;;;34.03;19.80;;;;;;;7.37;100.00;102544.25;4918479;29;20064;-74
2023/04/17 04:08:35;;;;;;;34.20;19.63;;;;;;;7.38;100.00;102543.41;4900447;29;20046;-74
2023/04/17 04:11:02;;;;;;;30.65;20.08;;;;;;;7.39;100.00;102545.16;4884957;29;20087;-74
2023/04/17 04:13:33;;;;;;;33.42;19.33;;;;;;;7.38;100.00;102543.41;4908060;29;20465;-74
2023/04/17 04:16:00;;;;;;;29.50;19.42;;;;;;;7.37;100.00;102547.78;4900205;29;20041;-74
2023/04/17 04:18:28;;;;;;;29.50;18.48;;;;;;;7.35;100.00;102548.63;4909500;29;20040;-74
2023/04/17 04:20:54;;;;;;;36.90;19.30;;;;;;;7.36;100.00;102553.00;4882700;29;20048;-74
2023/04/17 04:23:26;;;;;;;31.17;20.42;;;;;;;7.35;100.00;102549.50;4899003;29;20055;-74
2023/04/17 04:25:55;;;;;;;36.60;20.33;;;;;;;7.33;100.00;102549.47;4910469;29;20048;-74
2023/04/17 04:28:33;;;;;;;33.92;20.83;;;;;;;7.32;100.00;102560.88;4898141;29;20426;-74
2023/04/17 04:31:01;;;;;;;33.70;20.98;;;;;;;7.30;100.00;102557.31;4914100;29;20187;-74
2023/04/17 04:33:30;;;;;;;33.38;19.13;;;;;;;7.31;100.00;102558.19;4913484;29;20135;-74
2023/04/17 04:35:59;;;;;;;37.83;21.52;;;;;;;7.29;100.00;102557.28;4881828;29;20032;-74
2023/04/17 04:38:29;;;;;;;31.70;20.38;;;;;;;7.28;100.00;102561.66;4885890;29;20547;-74
2023/04/17 04:41:04;;;;;;;32.60;21.20;;;;;;;7.28;100.00;102559.03;4905897;29;20041;-74
2023/04/17 04:43:32;;;;;;;33.50;21.92;;;;;;;7.31;100.00;102560.84;4882969;29;20091;-74
2023/04/17 04:45:58;;;;;;;32.83;21.48;;;;;;;7.31;100.00;102560.84;4898086;29;20028;-74
2023/04/17 04:48:27;;;;;;;31.77;20.58;;;;;;;7.28;100.00;102566.94;4882611;29;20029;-73
2023/04/17 04:50:54;;;;;;;36.58;23.60;;;;;;;7.27;100.00;102562.53;4896574;29;20035;-73
2023/04/17 04:53:20;;;;;;;32.60;20.63;;;;;;;7.26;100.00;102568.66;4882159;29;20095;-73
2023/04/17 04:55:52;;;;;;;35.95;22.60;;;;;;;7.30;100.00;102569.59;4911720;29;20032;-73
2023/04/17 04:58:20;;;;;;;36.95;22.20;;;;;;;7.30;100.00;102572.25;4932228;29;20091;-73
2023/04/17 05:00:47;;;;;;;34.25;21.98;;;;;;;7.29;100.00;102576.63;4917439;29;20056;-73
2023/04/17 05:03:22;;;;;;;35.20;21.92;;;;;;;7.31;100.00;102571.38;4922627;28;20040;-73
2023/04/17 05:05:49;;;;;;;35.83;20.73;;;;;;;7.30;100.00;102569.59;4912145;29;20045;-73
2023/04/17 05:08:16;;;;;;;36.08;21.17;;;;;;;7.31;100.00;102568.75;4931089;29;20036;-73
2023/04/17 05:10:49;;;;;;;36.10;21.65;;;;;;;7.31;100.00;102579.28;4894305;29;20055;-73
2023/04/17 05:13:15;;;;;;;38.15;21.95;;;;;;;7.30;100.00;102574.88;4907928;29;20027;-73
2023/04/17 05:15:41;;;;;;;38.47;23.88;;;;;;;7.30;100.00;102585.41;4927361;29;20050;-73
2023/04/17 05:18:07;;;;;;;36.83;23.65;;;;;;;7.31;100.00;102589.81;4907979;29;20044;-74
2023/04/17 05:20:33;;;;;;;36.67;23.00;;;;;;;7.30;100.00;102586.31;4899367;29;20146;-73
2023/04/17 05:22:59;;;;;;;40.30;21.98;;;;;;;7.30;100.00;102582.78;4911326;29;20116;-73
2023/04/17 05:25:25;;;;;;;42.85;22.90;;;;;;;7.31;100.00;102588.06;4910421;29;20039;-73
2023/04/17 05:27:52;;;;;;;39.20;24.02;;;;;;;7.29;100.00;102592.44;4897006;29;20032;-73
2023/04/17 05:30:18;;;;;;;35.35;23.52;;;;;;;7.32;100.00;102595.13;4913152;29;20042;-73
2023/04/17 05:32:48;;;;;;;34.72;22.60;;;;;;;7.36;100.00;102595.19;4878398;29;20140;-73
2023/04/17 05:35:26;;;;;;;40.60;24.92;;;;;;;7.35;100.00;102596.06;4873828;29;20048;-73
2023/04/17 05:37:53;;;;;;;39.35;23.65;;;;;;;7.35;100.00;102583.75;4866106;29;20040;-73
2023/04/17 05:40:18;;;;;;;38.72;24.30;;;;;;;7.38;100.00;102597.00;4896128;29;20067;-73
2023/04/17 05:42:44;;;;;;;37.83;23.77;;;;;;;7.39;100.00;102592.59;4902565;29;20048;-74
2023/04/17 05:45:14;;;;;;;40.10;24.27;;;;;;;7.37;100.00;102597.88;4887282;29;20059;-71
2023/04/17 05:47:40;;;;;;;42.72;23.80;;;;;;;7.38;100.00;102598.75;4896905;29;20070;-71
2023/04/17 05:50:07;;;;;;;36.88;22.45;;;;;;;7.39;100.00;102597.88;4881275;29;20389;-71
2023/04/17 05:52:32;;;;;;;38.13;23.67;;;;;;;7.42;100.00;102597.94;4881025;29;20037;-72
2023/04/17 05:54:59;;;;;;;38.22;23.40;;;;;;;7.43;100.00;102600.59;4890331;29;20490;-71
2023/04/17 05:57:25;;;;;;;36.53;23.48;;;;;;;7.45;100.00;102598.88;4883306;29;20041;-71
2023/04/17 05:59:51;;;;;;;37.13;23.30;;;;;;;7.46;100.00;102610.31;4865744;29;20108;-71
2023/04/17 06:02:17;;;;;;;36.15;22.58;;;;;;;7.45;100.00;102608.56;4881481;29;20108;-71
2023/04/17 06:04:43;;;;;;;38.97;22.67;;;;;;;7.46;100.00;102607.69;4869922;29;20068;-74
2023/04/17 06:07:09;;;;;;;41.97;22.33;;;;;;;7.45;100.00;102608.56;4893102;29;20033;-74
2023/04/17 06:09:36;;;;;;;35.92;22.70;;;;;;;7.48;100.00;102604.22;4896654;29;20032;-74
2023/04/17 06:12:03;;;;;;;42.55;24.20;;;;;;;7.49;100.00;102608.66;4896520;29;20120;-74
2023/04/17 06:14:29;;;;;;;36.28;23.40;;;;;;;7.50;100.00;102612.16;4894267;29;20033;-74
2023/04/17 06:16:54;;;;;;;41.20;23.58;;;;;;;7.51;100.00;102613.94;4878535;29;20393;-75
2023/04/17 06:19:21;;;;;;;37.85;22.17;;;;;;;7.53;100.00;102618.38;4880820;29;20031;-74
2023/04/17 06:21:47;;;;;;;38.65;22.73;;;;;;;7.54;100.00;102622.81;4880305;29;20512;-74
2023/04/17 06:24:12;;;;;;;36.80;22.35;;;;;;;7.54;100.00;102625.44;4887568;29;20186;-74
2023/04/17 06:26:43;;;;;;;;;;;;;;;7.61;100.00;102620.25;4866109;29;20411;-74
2023/04/17 06:29:09;;;;;;;38.65;22.67;;;;;;;7.60;100.00;102627.28;4889151;29;19923;-74
2023/04/17 06:31:35;;;;;;;38.08;22.80;;;;;;;7.57;100.00;102629.88;4880476;29;20028;-75
2023/04/17 06:34:01;;;;;;;38.78;24.17;;;;;;;7.55;100.00;102628.97;4893964;29;20089;-75
2023/04/17 06:36:32;;;;;;;39.95;23.70;;;;;;;7.54;100.00;102630.72;4881514;29;20596;-75
2023/04/17 06:39:00;;;;;;;42.25;24.30;;;;;;;7.52;100.00;102628.91;4869714;29;20119;-75
2023/04/17 06:41:27;;;;;;;38.42;22.73;;;;;;;7.53;100.00;102633.31;4896008;29;20033;-75
2023/04/17 06:43:53;;;;;;;37.97;22.88;;;;;;;7.53;100.00;102634.19;4864963;29;20059;-75
2023/04/17 06:46:20;;;;;;;40.17;23.70;;;;;;;7.55;100.00;102642.13;4865144;29;20082;-75
2023/04/17 06:48:46;;;;;;;34.88;22.98;;;;;;;7.56;100.00;102636.00;4895830;29;20580;-74
2023/04/17 06:51:11;;;;;;;43.20;22.98;;;;;;;7.59;100.00;102641.34;4864854;29;20107;-74
2023/04/17 06:53:36;;;;;;;38.58;23.23;;;;;;;7.61;100.00;102646.63;4880217;29;20044;-75
2023/04/17 06:56:02;;;;;;;37.35;23.17;;;;;;;7.60;100.00;102653.66;4896554;29;20028;-75
2023/04/17 06:58:28;;;;;;;34.88;22.67;;;;;;;7.60;100.00;102645.75;4897019;29;20080;-74
2023/04/17 07:00:53;;;;;;;37.05;23.00;;;;;;;7.60;100.00;102651.03;4894738;29;20136;-75
2023/04/17 07:03:19;;;;;;;39.22;22.42;;;;;;;7.62;100.00;102651.06;4896825;29;20091;-74
2023/04/17 07:05:44;;;;;;;34.67;22.98;;;;;;;7.64;100.00;102650.22;4880091;29;20032;-74
2023/04/17 07:08:10;;;;;;;36.03;24.00;;;;;;;7.65;100.00;102648.47;4896815;29;20107;-75
2023/04/17 07:10:35;;;;;;;42.85;23.73;;;;;;;7.66;100.00;102653.75;4896754;29;20032;-74
2023/04/17 07:13:01;;;;;;;33.60;22.58;;;;;;;7.68;100.00;102659.06;4904372;29;20104;-74
2023/04/17 07:15:29;;;;;;;34.20;22.55;;;;;;;7.67;100.00;102667.88;4901645;29;20076;-74
2023/04/17 07:17:55;;;;;;;35.22;24.33;;;;;;;7.67;100.00;102663.47;4898998;29;20100;-75
2023/04/17 07:20:20;;;;;;;38.38;25.70;;;;;;;7.66;100.00;102672.22;4897006;29;20401;-74
2023/04/17 07:22:46;;;;;;;39.08;26.33;;;;;;;7.68;100.00;102673.16;4897962;29;20040;-74
2023/04/17 07:25:12;;;;;;;42.10;25.15;;;;;;;7.69;100.00;102676.66;4896774;29;20028;-74
2023/04/17 07:27:38;;;;;;;38.55;24.30;;;;;;;7.74;100.00;102667.13;4898329;29;20083;-75
2023/04/17 07:30:06;;;;;;;39.95;24.02;;;;;;;7.82;100.00;102685.72;4879756;29;20044;-75
2023/04/17 07:32:32;;;;;;;34.40;23.50;;;;;;;7.89;100.00;102675.31;4896368;29;20036;-75
2023/04/17 07:34:57;;;;;;;33.30;22.88;;;;;;;7.94;100.00;102675.41;4882921;29;20511;-75
2023/04/17 07:37:23;;;;;;;36.13;23.75;;;;;;;7.96;100.00;102682.50;4881707;29;20048;-74
2023/04/17 07:39:51;;;;;;;40.60;23.60;;;;;;;7.98;100.00;102672.81;4872366;29;20025;-76
2023/04/17 07:42:20;;;;;;;35.97;22.77;;;;;;;8.04;100.00;102679.09;4875483;29;20349;-77
2023/04/17 07:44:47;;;;;;;39.75;23.80;;;;;;;8.08;100.00;102684.44;4877459;29;20036;-76
2023/04/17 07:47:13;;;;;;;33.42;21.40;;;;;;;8.12;100.00;102685.41;4875712;29;20417;-76
2023/04/17 07:49:39;;;;;;;32.00;21.45;;;;;;;8.11;100.00;102680.97;4881264;29;20033;-71
2023/04/17 07:52:05;;;;;;;36.22;22.88;;;;;;;8.16;100.00;102684.59;4876929;29;20060;-71
2023/04/17 07:54:30;;;;;;;35.22;23.10;;;;;;;8.20;100.00;102694.31;4880011;29;20040;-71
2023/04/17 07:57:01;;;;;;;30.75;21.40;;;;;;;8.20;100.00;102686.41;4881668;29;20037;-71
2023/04/17 07:59:27;;;;;;;35.60;22.45;;;;;;;8.25;100.00;102691.78;4885103;29;20085;-71
2023/04/17 08:01:52;;;;;;;32.65;22.17;;;;;;;8.32;100.00;102688.38;4884690;29;20033;-76
2023/04/17 08:04:18;;;;;;;34.63;21.90;;;;;;;8.37;100.00;102681.44;4885239;29;20037;-76
2023/04/17 08:06:44;;;;;;;30.30;20.92;;;;;;;8.43;100.00;102689.47;4888539;29;20468;-76
2023/04/17 08:09:09;;;;;;;34.03;22.55;;;;;;;8.46;99.91;102684.25;4882042;29;20073;-76
2023/04/17 08:11:35;;;;;;;35.80;21.33;;;;;;;8.51;100.00;102686.97;4866671;29;20064;-76
2023/04/17 08:14:01;;;;;;;35.63;22.08;;;;;;;8.59;100.00;102687.97;4876418;29;20445;-76
2023/04/17 08:16:26;;;;;;;32.50;22.08;;;;;;;8.69;100.00;102687.25;4877200;29;20503;-76
2023/04/17 08:18:52;;;;;;;32.85;21.55;;;;;;;8.76;100.00;102694.41;4879621;29;20049;-75
2023/04/17 08:21:17;;;;;;;33.13;21.70;;;;;;;8.84;99.58;102694.53;4879147;29;20053;-75
2023/04/17 08:23:43;;;;;;;32.63;21.00;;;;;;;8.87;98.01;102689.28;4880359;29;20049;-74
2023/04/17 08:26:08;;;;;;;35.05;23.05;;;;;;;8.90;97.88;102691.06;4881254;29;20031;-75
2023/04/17 08:28:34;;;;;;;32.75;20.70;;;;;;;8.90;97.18;102694.63;4883890;29;20024;-75
2023/04/17 08:30:59;;;;;;;33.78;21.73;;;;;;;8.90;96.84;102697.28;4879608;29;20048;-75
2023/04/17 08:33:25;;;;;;;38.17;22.17;;;;;;;8.92;97.71;102690.22;4891410;29;20061;-75
2023/04/17 08:35:51;;;;;;;29.80;20.10;;;;;;;9.00;98.02;102693.91;4899423;29;20477;-75
2023/04/17 08:38:16;;;;;;;31.67;21.15;;;;;;;9.09;96.96;102692.25;4898333;29;20041;-75
2023/04/17 08:40:45;;;;;;;29.40;19.98;;;;;;;9.16;97.52;102695.00;4899217;29;20472;-75
2023/04/17 08:43:16;;;;;;;32.65;20.38;;;;;;;9.23;95.66;102693.31;4899538;29;20041;-75
2023/04/17 08:45:54;;;;;;;34.25;21.30;;;;;;;9.31;96.12;102699.59;4882584;29;20032;-75
2023/04/17 08:48:23;;;;;;;36.83;20.73;;;;;;;9.44;96.29;102697.97;4899448;29;20511;-75
2023/04/17 08:50:50;;;;;;;30.77;20.42;;;;;;;9.55;94.59;102695.50;4899138;29;20031;-75
2023/04/17 08:53:16;;;;;;;33.17;21.17;;;;;;;9.60;94.86;102692.03;4899331;29;20132;-75
2023/04/17 08:55:43;;;;;;;30.10;20.42;;;;;;;9.66;93.17;102697.38;4897881;29;20092;-74
2023/04/17 08:58:09;;;;;;;32.40;21.17;;;;;;;9.67;93.13;102700.94;4899163;29;20097;-74
2023/04/17 09:00:39;;;;;;;40.58;21.77;;;;;;;9.72;92.80;102704.50;4897694;29;20028;-75
2023/04/17 09:03:10;;;;;;;35.30;21.67;;;;;;;9.73;92.52;102700.09;4895953;29;20037;-70
2023/04/17 09:05:37;;;;;;;30.92;19.92;;;;;;;9.72;92.22;102700.94;4918084;29;20391;-70
2023/04/17 09:08:07;;;;;;;35.78;21.10;;;;;;;9.73;92.31;102700.97;4904535;29;20032;-70
2023/04/17 09:10:40;;;;;;;31.48;21.98;;;;;;;9.76;91.64;102695.72;4916049;29;20079;-71
2023/04/17 09:13:07;;;;;;;33.55;21.48;;;;;;;9.82;92.32;102701.09;4916576;29;20055;-70
2023/04/17 09:15:34;;;;;;;33.08;21.30;;;;;;;9.95;92.70;102709.16;4916316;29;20032;-70
2023/04/17 09:18:00;;;;;;;33.65;22.15;;;;;;;10.05;92.86;102703.97;4917618;29;20044;-70
2023/04/17 09:20:26;;;;;;;32.33;22.33;;;;;;;10.24;92.64;102701.53;4906651;29;20031;-70
2023/04/17 09:23:02;;;;;;;36.15;21.60;;;;;;;10.40;91.91;102694.63;4917615;29;20040;-70
2023/04/17 09:25:28;;;;;;;32.55;22.30;;;;;;;10.62;90.88;102693.91;4917509;29;20493;-70
2023/04/17 09:28:07;;;;;;;29.50;20.38;;;;;;;10.83;89.59;102692.28;4916224;29;20028;-71
2023/04/17 09:30:36;;;;;;;35.20;22.55;;;;;;;11.00;88.91;102692.41;4917348;29;20044;-70
2023/04/17 09:33:04;;;;;;;34.45;23.15;;;;;;;11.17;89.04;102694.25;4917272;29;20084;-71
2023/04/17 09:35:30;;;;;;;31.38;20.65;;;;;;;11.30;87.36;102697.88;4908441;29;20319;-71
2023/04/17 09:37:58;;;;;;;32.50;21.80;;;;;;;11.40;85.92;102696.16;4916639;29;20059;-71
2023/04/17 09:40:25;;;;;;;33.25;21.25;;;;;;;11.49;85.25;102696.19;4897927;29;20364;-71
2023/04/17 09:43:01;;;;;;;32.10;20.30;;;;;;;11.58;84.82;102698.00;4898449;29;20044;-71
2023/04/17 09:45:35;;;;;;;29.00;20.73;;;;;;;11.71;84.69;102686.53;4898665;29;20476;-70
2023/04/17 09:48:04;;;;;;;33.85;20.73;;;;;;;11.71;81.57;102689.19;4898387;29;20127;-71
2023/04/17 09:50:31;;;;;;;34.25;21.20;;;;;;;11.70;81.59;102687.44;4898140;29;20032;-70
2023/04/17 09:52:57;;;;;;;28.40;20.30;;;;;;;11.80;82.23;102689.22;4898199;29;20059;-71
2023/04/17 09:55:25;;;;;;;32.17;20.40;;;;;;;11.97;80.57;102683.09;4898181;29;20029;-71
2023/04/17 09:57:53;;;;;;;28.23;19.92;;;;;;;12.25;78.38;102684.00;4898105;29;20048;-71
2023/04/17 10:00:22;;;;;;;30.25;20.45;;;;;;;12.46;77.62;102685.78;4898020;29;20032;-71
2023/04/17 10:02:50;;;;;;;28.58;20.00;;;;;;;12.59;77.53;102684.91;4898181;29;20038;-71
2023/04/17 10:05:17;;;;;;;35.13;20.27;;;;;;;12.72;76.58;102690.22;4896938;29;20111;-70
2023/04/17 10:07:43;;;;;;;32.47;19.83;;;;;;;12.89;75.38;102686.63;4897934;29;20040;-71
2023/04/17 10:10:10;;;;;;;31.50;20.95;;;;;;;13.09;74.84;102680.38;4897962;29;20100;-71
2023/04/17 10:12:38;;;;;;;30.00;20.40;;;;;;;13.26;75.72;102681.19;4891413;29;20070;-71
2023/04/17 10:15:12;;;;;;;31.48;19.88;;;;;;;13.55;74.80;102670.47;4895679;29;20036;-74
2023/04/17 10:17:37;;;;;;;33.13;19.40;;;;;;;13.60;71.57;102672.19;4905408;29;20036;-75
2023/04/17 10:20:16;;;;;;;30.45;19.75;;;;;;;13.60;72.26;102674.88;4887311;29;20503;-75
2023/04/17 10:22:42;;;;;;;30.83;20.23;;;;;;;13.48;69.83;102679.38;4903886;29;20036;-75
2023/04/17 10:25:14;;;;;;;27.67;18.15;;;;;;;13.41;69.37;102680.28;4905481;29;20025;-75
2023/04/17 10:27:40;;;;;;;29.95;20.20;;;;;;;13.39;69.63;102684.72;4909691;29;20036;-75
2023/04/17 10:30:09;;;;;;;28.05;18.90;;;;;;;13.40;69.07;102683.84;4892040;29;20084;-75
2023/04/17 10:32:41;;;;;;;26.65;18.98;;;;;;;13.37;69.30;102681.19;4891271;29;20055;-75
2023/04/17 10:35:16;;;;;;;28.52;18.80;;;;;;;13.46;72.43;102675.81;4892146;29;20056;-75
2023/04/17 10:37:50;;;;;;;30.30;19.73;;;;;;;13.61;71.20;102674.88;4894398;29;20048;-75
2023/04/17 10:40:28;;;;;;;30.73;20.90;;;;;;;13.71;71.18;102676.59;4885138;29;20033;-75
2023/04/17 10:43:12;;;;;;;28.52;20.77;;;;;;;13.77;71.66;102673.00;4895757;29;20033;-75
2023/04/17 10:45:59;;;;;;;32.75;20.52;;;;;;;13.94;72.66;102675.56;4897048;29;20048;-76
2023/04/17 10:48:28;;;;;;;32.90;20.60;;;;;;;14.35;71.33;102671.72;4891160;29;20036;-76
2023/04/17 10:50:55;;;;;;;34.17;20.65;;;;;;;14.81;69.55;102672.19;4891904;29;20028;-76
2023/04/17 10:53:42;;;;;;;29.33;20.10;;;;;;;15.02;68.82;102664.84;4875135;29;20135;-76
2023/04/17 10:56:09;;;;;;;29.08;19.75;;;;;;;14.92;63.93;102661.41;4880094;29;20480;-75
2023/04/17 10:58:53;;;;;;;26.92;18.35;;;;;;;14.76;62.73;102658.03;4897082;29;20476;-75
2023/04/17 11:01:19;;;;;;;28.15;18.85;;;;;;;14.92;66.03;102660.53;4895774;29;20080;-75
2023/04/17 11:03:45;;;;;;;33.10;20.30;;;;;;;15.10;65.26;102656.75;4897130;29;20498;-75
2023/04/17 11:06:12;;;;;;;29.50;20.20;;;;;;;15.30;64.17;102657.41;4896931;29;20028;-75
2023/04/17 11:08:37;;;;;;;28.30;18.92;;;;;;;15.44;63.28;102657.22;4896998;29;20029;-75
2023/04/17 11:11:03;;;;;;;26.23;18.13;;;;;;;15.53;63.95;102657.13;4896798;29;20059;-75